sensor_id;sensor_type;location;lat;lon;timestamp;P1;durP1;ratioP1;P2;durP2;ratioP2
57337;SDS011;43173;50.980;18.204;2023-05-14T00:01:25;27.90;;;13.90;;
57337;SDS011;43173;50.980;18.204;2023-05-14T00:03:50;24.60;;;12.70;;
57337;SDS011;43173;50.980;18.204;2023-05-14T00:06:16;24.20;;;12.90;;
57337;SDS011;43173;50.980;18.204;2023-05-14T00:08:41;22.30;;;13.20;;
57337;SDS011;43173;50.980;18.204;2023-05-14T00:11:07;25.00;;;13.50;;
57337;SDS011;43173;50.980;18.204;2023-05-14T00:13:33;26.20;;;13.90;;
57337;SDS011;43173;50.980;18.204;2023-05-14T00:16:00;24.80;;;13.40;;
57337;SDS011;43173;50.980;18.204;2023-05-14T00:18:25;23.50;;;13.30;;
57337;SDS011;43173;50.980;18.204;2023-05-14T00:20:51;20.70;;;14.00;;
57337;SDS011;43173;50.980;18.204;2023-05-14T00:23:22;20.70;;;13.10;;
57337;SDS011;43173;50.980;18.204;2023-05-14T00:25:48;22.80;;;13.00;;
57337;SDS011;43173;50.980;18.204;2023-05-14T00:28:14;24.00;;;14.10;;
57337;SDS011;43173;50.980;18.204;2023-05-14T00:30:40;26.30;;;15.50;;
57337;SDS011;43173;50.980;18.204;2023-05-14T00:33:06;24.60;;;14.70;;
57337;SDS011;43173;50.980;18.204;2023-05-14T00:35:32;26.90;;;14.80;;
57337;SDS011;43173;50.980;18.204;2023-05-14T00:38:01;26.30;;;14.70;;
57337;SDS011;43173;50.980;18.204;2023-05-14T00:40:27;26.10;;;15.10;;
57337;SDS011;43173;50.980;18.204;2023-05-14T00:42:53;32.10;;;16.70;;
57337;SDS011;43173;50.980;18.204;2023-05-14T00:45:19;26.90;;;15.70;;
57337;SDS011;43173;50.980;18.204;2023-05-14T00:47:45;27.80;;;16.20;;
57337;SDS011;43173;50.980;18.204;2023-05-14T00:50:11;26.00;;;16.00;;
57337;SDS011;43173;50.980;18.204;2023-05-14T00:52:37;27.00;;;15.40;;
57337;SDS011;43173;50.980;18.204;2023-05-14T00:55:03;25.50;;;15.30;;
57337;SDS011;43173;50.980;18.204;2023-05-14T00:57:31;26.90;;;15.50;;
57337;SDS011;43173;50.980;18.204;2023-05-14T00:59:57;30.40;;;16.10;;
57337;SDS011;43173;50.980;18.204;2023-05-14T01:02:24;27.60;;;15.70;;
57337;SDS011;43173;50.980;18.204;2023-05-14T01:04:50;30.40;;;16.50;;
57337;SDS011;43173;50.980;18.204;2023-05-14T01:12:45;20.80;;;14.60;;
57337;SDS011;43173;50.980;18.204;2023-05-14T01:15:15;22.50;;;15.10;;
57337;SDS011;43173;50.980;18.204;2023-05-14T01:17:53;23.70;;;14.40;;
57337;SDS011;43173;50.980;18.204;2023-05-14T01:20:21;23.60;;;15.30;;
57337;SDS011;43173;50.980;18.204;2023-05-14T01:22:46;19.80;;;14.00;;
57337;SDS011;43173;50.980;18.204;2023-05-14T01:25:12;23.10;;;14.30;;
57337;SDS011;43173;50.980;18.204;2023-05-14T01:33:06;24.60;;;14.70;;
57337;SDS011;43173;50.980;18.204;2023-05-14T01:35:35;23.20;;;14.30;;
57337;SDS011;43173;50.980;18.204;2023-05-14T01:38:02;24.00;;;14.80;;
57337;SDS011;43173;50.980;18.204;2023-05-14T01:40:30;21.10;;;14.00;;
57337;SDS011;43173;50.980;18.204;2023-05-14T01:42:56;20.10;;;13.80;;
57337;SDS011;43173;50.980;18.204;2023-05-14T01:45:25;24.60;;;14.10;;
57337;SDS011;43173;50.980;18.204;2023-05-14T01:47:51;23.10;;;13.70;;
57337;SDS011;43173;50.980;18.204;2023-05-14T01:50:18;21.90;;;12.80;;
57337;SDS011;43173;50.980;18.204;2023-05-14T01:52:44;19.60;;;12.50;;
57337;SDS011;43173;50.980;18.204;2023-05-14T01:55:09;20.20;;;12.60;;
57337;SDS011;43173;50.980;18.204;2023-05-14T01:57:35;20.90;;;12.70;;
57337;SDS011;43173;50.980;18.204;2023-05-14T02:00:00;21.80;;;13.00;;
57337;SDS011;43173;50.980;18.204;2023-05-14T02:02:27;22.30;;;13.40;;
57337;SDS011;43173;50.980;18.204;2023-05-14T02:04:52;20.30;;;13.50;;
57337;SDS011;43173;50.980;18.204;2023-05-14T02:07:18;20.10;;;13.60;;
57337;SDS011;43173;50.980;18.204;2023-05-14T02:09:43;23.80;;;14.80;;
57337;SDS011;43173;50.980;18.204;2023-05-14T02:12:09;20.00;;;13.80;;
57337;SDS011;43173;50.980;18.204;2023-05-14T02:14:36;24.60;;;14.50;;
57337;SDS011;43173;50.980;18.204;2023-05-14T02:17:02;23.90;;;13.90;;
57337;SDS011;43173;50.980;18.204;2023-05-14T02:19:28;21.80;;;12.60;;
57337;SDS011;43173;50.980;18.204;2023-05-14T02:21:54;20.80;;;14.30;;
57337;SDS011;43173;50.980;18.204;2023-05-14T02:24:20;21.20;;;12.80;;
57337;SDS011;43173;50.980;18.204;2023-05-14T02:26:46;21.50;;;13.60;;
57337;SDS011;43173;50.980;18.204;2023-05-14T02:29:12;22.30;;;14.90;;
57337;SDS011;43173;50.980;18.204;2023-05-14T02:31:37;24.40;;;15.20;;
57337;SDS011;43173;50.980;18.204;2023-05-14T02:34:03;22.60;;;13.70;;
57337;SDS011;43173;50.980;18.204;2023-05-14T02:36:30;22.20;;;13.90;;
57337;SDS011;43173;50.980;18.204;2023-05-14T02:38:57;20.50;;;14.10;;
57337;SDS011;43173;50.980;18.204;2023-05-14T02:41:23;21.10;;;14.50;;
57337;SDS011;43173;50.980;18.204;2023-05-14T02:43:49;21.00;;;14.30;;
57337;SDS011;43173;50.980;18.204;2023-05-14T02:46:14;24.00;;;15.40;;
57337;SDS011;43173;50.980;18.204;2023-05-14T02:48:40;28.80;;;15.90;;
57337;SDS011;43173;50.980;18.204;2023-05-14T02:51:06;28.80;;;15.60;;
57337;SDS011;43173;50.980;18.204;2023-05-14T02:53:32;27.40;;;16.50;;
57337;SDS011;43173;50.980;18.204;2023-05-14T02:55:57;24.00;;;15.50;;
57337;SDS011;43173;50.980;18.204;2023-05-14T02:58:23;23.70;;;15.20;;
57337;SDS011;43173;50.980;18.204;2023-05-14T03:00:49;22.50;;;14.70;;
57337;SDS011;43173;50.980;18.204;2023-05-14T03:03:14;23.00;;;13.60;;
57337;SDS011;43173;50.980;18.204;2023-05-14T03:05:40;20.70;;;14.40;;
57337;SDS011;43173;50.980;18.204;2023-05-14T03:08:05;23.00;;;13.60;;
57337;SDS011;43173;50.980;18.204;2023-05-14T03:10:31;21.50;;;14.00;;
57337;SDS011;43173;50.980;18.204;2023-05-14T03:12:57;22.30;;;14.10;;
57337;SDS011;43173;50.980;18.204;2023-05-14T03:15:22;22.60;;;14.70;;
57337;SDS011;43173;50.980;18.204;2023-05-14T03:17:49;24.00;;;14.50;;
57337;SDS011;43173;50.980;18.204;2023-05-14T03:20:15;23.90;;;13.90;;
57337;SDS011;43173;50.980;18.204;2023-05-14T03:22:40;21.60;;;13.50;;
57337;SDS011;43173;50.980;18.204;2023-05-14T03:25:06;22.20;;;14.40;;
57337;SDS011;43173;50.980;18.204;2023-05-14T03:27:32;25.30;;;14.80;;
57337;SDS011;43173;50.980;18.204;2023-05-14T03:29:59;24.60;;;15.90;;
57337;SDS011;43173;50.980;18.204;2023-05-14T03:32:25;23.50;;;16.10;;
57337;SDS011;43173;50.980;18.204;2023-05-14T03:34:51;22.20;;;14.90;;
57337;SDS011;43173;50.980;18.204;2023-05-14T03:37:16;24.70;;;15.30;;
57337;SDS011;43173;50.980;18.204;2023-05-14T03:39:42;21.90;;;14.60;;
57337;SDS011;43173;50.980;18.204;2023-05-14T03:42:08;22.80;;;15.40;;
57337;SDS011;43173;50.980;18.204;2023-05-14T03:44:33;27.40;;;15.90;;
57337;SDS011;43173;50.980;18.204;2023-05-14T03:46:59;22.20;;;14.70;;
57337;SDS011;43173;50.980;18.204;2023-05-14T03:49:25;23.80;;;14.30;;
57337;SDS011;43173;50.980;18.204;2023-05-14T03:51:50;25.20;;;15.00;;
57337;SDS011;43173;50.980;18.204;2023-05-14T03:54:16;23.00;;;15.40;;
57337;SDS011;43173;50.980;18.204;2023-05-14T03:56:42;22.50;;;15.50;;
57337;SDS011;43173;50.980;18.204;2023-05-14T03:59:07;20.30;;;14.50;;
57337;SDS011;43173;50.980;18.204;2023-05-14T04:01:33;23.30;;;15.30;;
57337;SDS011;43173;50.980;18.204;2023-05-14T04:03:58;22.80;;;15.30;;
57337;SDS011;43173;50.980;18.204;2023-05-14T04:06:24;25.20;;;16.40;;
57337;SDS011;43173;50.980;18.204;2023-05-14T04:08:50;26.60;;;16.60;;
57337;SDS011;43173;50.980;18.204;2023-05-14T04:11:15;27.60;;;17.30;;
57337;SDS011;43173;50.980;18.204;2023-05-14T04:13:41;25.00;;;16.90;;
57337;SDS011;43173;50.980;18.204;2023-05-14T04:16:07;24.80;;;16.30;;
57337;SDS011;43173;50.980;18.204;2023-05-14T04:18:32;26.10;;;16.70;;
57337;SDS011;43173;50.980;18.204;2023-05-14T04:21:01;23.00;;;15.10;;
57337;SDS011;43173;50.980;18.204;2023-05-14T04:23:27;26.80;;;15.60;;
57337;SDS011;43173;50.980;18.204;2023-05-14T04:25:53;22.00;;;14.70;;
57337;SDS011;43173;50.980;18.204;2023-05-14T04:28:21;22.40;;;14.60;;
57337;SDS011;43173;50.980;18.204;2023-05-14T04:30:47;21.40;;;15.20;;
57337;SDS011;43173;50.980;18.204;2023-05-14T04:33:12;24.30;;;15.70;;
57337;SDS011;43173;50.980;18.204;2023-05-14T04:35:38;22.50;;;15.40;;
57337;SDS011;43173;50.980;18.204;2023-05-14T04:38:03;24.10;;;14.90;;
57337;SDS011;43173;50.980;18.204;2023-05-14T04:40:30;23.10;;;15.20;;
57337;SDS011;43173;50.980;18.204;2023-05-14T04:42:56;22.20;;;14.70;;
57337;SDS011;43173;50.980;18.204;2023-05-14T04:45:22;24.80;;;13.70;;
57337;SDS011;43173;50.980;18.204;2023-05-14T04:47:47;22.20;;;13.30;;
57337;SDS011;43173;50.980;18.204;2023-05-14T04:50:13;22.30;;;13.00;;
57337;SDS011;43173;50.980;18.204;2023-05-14T04:52:39;19.00;;;12.70;;
57337;SDS011;43173;50.980;18.204;2023-05-14T04:55:04;19.50;;;13.00;;
57337;SDS011;43173;50.980;18.204;2023-05-14T04:57:31;18.20;;;11.90;;
57337;SDS011;43173;50.980;18.204;2023-05-14T04:59:56;18.10;;;10.60;;
57337;SDS011;43173;50.980;18.204;2023-05-14T05:02:22;17.60;;;11.30;;
57337;SDS011;43173;50.980;18.204;2023-05-14T05:04:48;14.20;;;10.10;;
57337;SDS011;43173;50.980;18.204;2023-05-14T05:07:14;17.60;;;12.30;;
57337;SDS011;43173;50.980;18.204;2023-05-14T05:09:41;17.90;;;11.80;;
57337;SDS011;43173;50.980;18.204;2023-05-14T05:12:07;18.80;;;13.50;;
57337;SDS011;43173;50.980;18.204;2023-05-14T05:14:33;19.80;;;14.10;;
57337;SDS011;43173;50.980;18.204;2023-05-14T05:16:59;19.90;;;13.80;;
57337;SDS011;43173;50.980;18.204;2023-05-14T05:19:24;18.40;;;12.90;;
57337;SDS011;43173;50.980;18.204;2023-05-14T05:21:50;17.90;;;11.70;;
57337;SDS011;43173;50.980;18.204;2023-05-14T05:24:16;19.70;;;13.00;;
57337;SDS011;43173;50.980;18.204;2023-05-14T05:26:41;17.30;;;11.40;;
57337;SDS011;43173;50.980;18.204;2023-05-14T05:29:07;17.20;;;11.20;;
57337;SDS011;43173;50.980;18.204;2023-05-14T05:31:32;16.40;;;12.60;;
57337;SDS011;43173;50.980;18.204;2023-05-14T05:33:59;16.00;;;10.90;;
57337;SDS011;43173;50.980;18.204;2023-05-14T05:36:25;19.00;;;11.90;;
57337;SDS011;43173;50.980;18.204;2023-05-14T05:38:51;16.70;;;11.50;;
57337;SDS011;43173;50.980;18.204;2023-05-14T05:41:17;17.20;;;11.00;;
57337;SDS011;43173;50.980;18.204;2023-05-14T05:43:42;15.10;;;10.80;;
57337;SDS011;43173;50.980;18.204;2023-05-14T05:46:08;20.90;;;12.40;;
57337;SDS011;43173;50.980;18.204;2023-05-14T05:48:33;14.60;;;10.90;;
57337;SDS011;43173;50.980;18.204;2023-05-14T05:50:59;15.40;;;10.70;;
57337;SDS011;43173;50.980;18.204;2023-05-14T05:53:25;14.10;;;10.60;;
57337;SDS011;43173;50.980;18.204;2023-05-14T05:55:50;14.50;;;10.20;;
57337;SDS011;43173;50.980;18.204;2023-05-14T05:58:16;16.50;;;10.40;;
57337;SDS011;43173;50.980;18.204;2023-05-14T06:00:43;13.60;;;8.90;;
57337;SDS011;43173;50.980;18.204;2023-05-14T06:03:10;9.40;;;7.20;;
57337;SDS011;43173;50.980;18.204;2023-05-14T06:05:35;11.50;;;6.50;;
57337;SDS011;43173;50.980;18.204;2023-05-14T06:08:02;10.40;;;6.00;;
57337;SDS011;43173;50.980;18.204;2023-05-14T06:10:27;6.90;;;4.60;;
57337;SDS011;43173;50.980;18.204;2023-05-14T06:12:53;6.60;;;4.60;;
57337;SDS011;43173;50.980;18.204;2023-05-14T06:15:18;6.20;;;4.40;;
57337;SDS011;43173;50.980;18.204;2023-05-14T06:17:45;6.00;;;3.90;;
57337;SDS011;43173;50.980;18.204;2023-05-14T06:20:11;6.90;;;4.30;;
57337;SDS011;43173;50.980;18.204;2023-05-14T06:22:37;6.40;;;4.00;;
57337;SDS011;43173;50.980;18.204;2023-05-14T06:25:03;5.00;;;3.70;;
57337;SDS011;43173;50.980;18.204;2023-05-14T06:27:29;10.00;;;4.50;;
57337;SDS011;43173;50.980;18.204;2023-05-14T06:29:54;8.40;;;3.80;;
57337;SDS011;43173;50.980;18.204;2023-05-14T06:32:20;4.80;;;3.50;;
57337;SDS011;43173;50.980;18.204;2023-05-14T06:34:45;3.60;;;2.90;;
57337;SDS011;43173;50.980;18.204;2023-05-14T06:37:11;4.20;;;3.20;;
57337;SDS011;43173;50.980;18.204;2023-05-14T06:39:37;3.30;;;2.70;;
57337;SDS011;43173;50.980;18.204;2023-05-14T06:42:03;3.20;;;2.50;;
57337;SDS011;43173;50.980;18.204;2023-05-14T06:44:30;4.10;;;2.50;;
57337;SDS011;43173;50.980;18.204;2023-05-14T06:46:55;2.80;;;2.30;;
57337;SDS011;43173;50.980;18.204;2023-05-14T06:49:21;3.80;;;2.40;;
57337;SDS011;43173;50.980;18.204;2023-05-14T06:51:47;2.70;;;2.00;;
57337;SDS011;43173;50.980;18.204;2023-05-14T06:54:13;3.60;;;2.30;;
57337;SDS011;43173;50.980;18.204;2023-05-14T06:56:38;3.70;;;2.30;;
57337;SDS011;43173;50.980;18.204;2023-05-14T06:59:04;3.90;;;2.60;;
57337;SDS011;43173;50.980;18.204;2023-05-14T07:01:29;4.60;;;2.60;;
57337;SDS011;43173;50.980;18.204;2023-05-14T07:03:55;3.40;;;2.30;;
57337;SDS011;43173;50.980;18.204;2023-05-14T07:06:21;3.50;;;2.20;;
57337;SDS011;43173;50.980;18.204;2023-05-14T07:08:48;2.70;;;2.00;;
57337;SDS011;43173;50.980;18.204;2023-05-14T07:11:13;3.90;;;2.90;;
57337;SDS011;43173;50.980;18.204;2023-05-14T07:13:39;4.50;;;2.40;;
57337;SDS011;43173;50.980;18.204;2023-05-14T07:16:05;2.40;;;2.10;;
57337;SDS011;43173;50.980;18.204;2023-05-14T07:18:33;4.30;;;2.50;;
57337;SDS011;43173;50.980;18.204;2023-05-14T07:20:59;3.10;;;2.40;;
57337;SDS011;43173;50.980;18.204;2023-05-14T07:23:25;5.10;;;2.60;;
57337;SDS011;43173;50.980;18.204;2023-05-14T07:25:50;2.40;;;2.00;;
57337;SDS011;43173;50.980;18.204;2023-05-14T07:28:16;3.90;;;2.60;;
57337;SDS011;43173;50.980;18.204;2023-05-14T07:30:42;4.60;;;3.40;;
57337;SDS011;43173;50.980;18.204;2023-05-14T07:33:07;4.50;;;3.10;;
57337;SDS011;43173;50.980;18.204;2023-05-14T07:35:33;4.10;;;2.90;;
57337;SDS011;43173;50.980;18.204;2023-05-14T07:37:59;3.40;;;2.70;;
57337;SDS011;43173;50.980;18.204;2023-05-14T07:40:25;4.20;;;2.80;;
57337;SDS011;43173;50.980;18.204;2023-05-14T07:42:51;3.60;;;2.10;;
57337;SDS011;43173;50.980;18.204;2023-05-14T07:45:17;2.40;;;1.80;;
57337;SDS011;43173;50.980;18.204;2023-05-14T07:47:42;3.60;;;2.30;;
57337;SDS011;43173;50.980;18.204;2023-05-14T07:50:08;3.70;;;3.00;;
57337;SDS011;43173;50.980;18.204;2023-05-14T07:52:35;3.20;;;2.30;;
57337;SDS011;43173;50.980;18.204;2023-05-14T07:55:01;2.90;;;1.80;;
57337;SDS011;43173;50.980;18.204;2023-05-14T07:57:27;1.70;;;1.60;;
57337;SDS011;43173;50.980;18.204;2023-05-14T07:59:53;1.90;;;1.60;;
57337;SDS011;43173;50.980;18.204;2023-05-14T08:02:18;2.30;;;1.70;;
57337;SDS011;43173;50.980;18.204;2023-05-14T08:04:44;2.40;;;1.40;;
57337;SDS011;43173;50.980;18.204;2023-05-14T08:07:10;2.00;;;1.70;;
57337;SDS011;43173;50.980;18.204;2023-05-14T08:09:35;1.90;;;1.40;;
57337;SDS011;43173;50.980;18.204;2023-05-14T08:12:01;1.70;;;1.60;;
57337;SDS011;43173;50.980;18.204;2023-05-14T08:14:27;1.70;;;1.50;;
57337;SDS011;43173;50.980;18.204;2023-05-14T08:16:53;2.60;;;1.70;;
57337;SDS011;43173;50.980;18.204;2023-05-14T08:19:19;2.10;;;1.20;;
57337;SDS011;43173;50.980;18.204;2023-05-14T08:21:44;1.60;;;1.30;;
57337;SDS011;43173;50.980;18.204;2023-05-14T08:24:10;1.70;;;1.30;;
57337;SDS011;43173;50.980;18.204;2023-05-14T08:26:36;1.50;;;1.40;;
57337;SDS011;43173;50.980;18.204;2023-05-14T08:29:03;1.50;;;1.30;;
57337;SDS011;43173;50.980;18.204;2023-05-14T08:31:29;2.00;;;1.40;;
57337;SDS011;43173;50.980;18.204;2023-05-14T08:33:55;2.00;;;1.20;;
57337;SDS011;43173;50.980;18.204;2023-05-14T08:36:20;1.40;;;1.30;;
57337;SDS011;43173;50.980;18.204;2023-05-14T08:38:46;1.60;;;1.20;;
57337;SDS011;43173;50.980;18.204;2023-05-14T08:41:12;1.40;;;1.20;;
57337;SDS011;43173;50.980;18.204;2023-05-14T08:46:23;1.60;;;1.50;;
57337;SDS011;43173;50.980;18.204;2023-05-14T08:48:55;2.00;;;1.20;;
57337;SDS011;43173;50.980;18.204;2023-05-14T08:51:25;1.40;;;1.10;;
57337;SDS011;43173;50.980;18.204;2023-05-14T08:53:51;1.60;;;1.30;;
57337;SDS011;43173;50.980;18.204;2023-05-14T08:56:16;2.00;;;1.30;;
57337;SDS011;43173;50.980;18.204;2023-05-14T08:58:43;1.50;;;1.20;;
57337;SDS011;43173;50.980;18.204;2023-05-14T09:01:08;3.00;;;2.60;;
57337;SDS011;43173;50.980;18.204;2023-05-14T09:03:34;4.00;;;1.80;;
57337;SDS011;43173;50.980;18.204;2023-05-14T09:06:00;1.70;;;1.40;;
57337;SDS011;43173;50.980;18.204;2023-05-14T09:08:26;1.20;;;1.10;;
57337;SDS011;43173;50.980;18.204;2023-05-14T09:10:52;2.60;;;1.30;;
57337;SDS011;43173;50.980;18.204;2023-05-14T09:13:18;3.30;;;1.30;;
57337;SDS011;43173;50.980;18.204;2023-05-14T09:15:44;1.90;;;1.40;;
57337;SDS011;43173;50.980;18.204;2023-05-14T09:18:10;1.70;;;1.30;;
57337;SDS011;43173;50.980;18.204;2023-05-14T09:20:36;4.20;;;1.50;;
57337;SDS011;43173;50.980;18.204;2023-05-14T09:23:02;1.60;;;1.40;;
57337;SDS011;43173;50.980;18.204;2023-05-14T09:25:30;1.80;;;1.10;;
57337;SDS011;43173;50.980;18.204;2023-05-14T09:27:56;1.60;;;1.50;;
57337;SDS011;43173;50.980;18.204;2023-05-14T09:30:22;2.20;;;1.20;;
57337;SDS011;43173;50.980;18.204;2023-05-14T09:32:49;2.40;;;1.40;;
57337;SDS011;43173;50.980;18.204;2023-05-14T09:35:19;2.70;;;1.60;;
57337;SDS011;43173;50.980;18.204;2023-05-14T09:37:48;4.50;;;2.70;;
57337;SDS011;43173;50.980;18.204;2023-05-14T09:40:15;6.20;;;3.80;;
57337;SDS011;43173;50.980;18.204;2023-05-14T09:42:42;2.40;;;2.00;;
57337;SDS011;43173;50.980;18.204;2023-05-14T09:45:07;3.50;;;2.30;;
57337;SDS011;43173;50.980;18.204;2023-05-14T09:47:34;2.80;;;2.00;;
57337;SDS011;43173;50.980;18.204;2023-05-14T09:50:01;1.30;;;1.20;;
57337;SDS011;43173;50.980;18.204;2023-05-14T09:52:27;1.70;;;1.50;;
57337;SDS011;43173;50.980;18.204;2023-05-14T09:54:52;1.50;;;1.40;;
57337;SDS011;43173;50.980;18.204;2023-05-14T09:57:18;1.80;;;1.60;;
57337;SDS011;43173;50.980;18.204;2023-05-14T09:59:44;1.40;;;1.30;;
57337;SDS011;43173;50.980;18.204;2023-05-14T10:02:52;2.70;;;1.50;;
57337;SDS011;43173;50.980;18.204;2023-05-14T10:05:03;1.70;;;1.40;;
57337;SDS011;43173;50.980;18.204;2023-05-14T10:07:38;1.60;;;1.30;;
57337;SDS011;43173;50.980;18.204;2023-05-14T10:10:07;2.40;;;1.50;;
57337;SDS011;43173;50.980;18.204;2023-05-14T10:12:37;1.80;;;1.50;;
57337;SDS011;43173;50.980;18.204;2023-05-14T10:15:05;2.00;;;1.60;;
57337;SDS011;43173;50.980;18.204;2023-05-14T10:17:37;2.70;;;2.00;;
57337;SDS011;43173;50.980;18.204;2023-05-14T10:20:06;2.80;;;1.60;;
57337;SDS011;43173;50.980;18.204;2023-05-14T10:22:33;2.90;;;1.60;;
57337;SDS011;43173;50.980;18.204;2023-05-14T10:25:00;3.30;;;1.60;;
57337;SDS011;43173;50.980;18.204;2023-05-14T10:27:28;5.10;;;1.50;;
57337;SDS011;43173;50.980;18.204;2023-05-14T10:29:54;2.90;;;1.60;;
57337;SDS011;43173;50.980;18.204;2023-05-14T10:32:23;2.70;;;1.70;;
57337;SDS011;43173;50.980;18.204;2023-05-14T10:34:50;1.80;;;1.50;;
57337;SDS011;43173;50.980;18.204;2023-05-14T10:37:26;2.60;;;1.60;;
57337;SDS011;43173;50.980;18.204;2023-05-14T10:39:52;1.60;;;1.40;;
57337;SDS011;43173;50.980;18.204;2023-05-14T10:42:20;2.50;;;1.40;;
57337;SDS011;43173;50.980;18.204;2023-05-14T10:44:53;2.40;;;1.70;;
57337;SDS011;43173;50.980;18.204;2023-05-14T10:47:25;1.90;;;1.50;;
57337;SDS011;43173;50.980;18.204;2023-05-14T10:49:53;3.90;;;1.80;;
57337;SDS011;43173;50.980;18.204;2023-05-14T10:52:26;3.10;;;1.60;;
57337;SDS011;43173;50.980;18.204;2023-05-14T10:57:19;2.30;;;1.50;;
57337;SDS011;43173;50.980;18.204;2023-05-14T10:59:49;2.10;;;1.40;;
57337;SDS011;43173;50.980;18.204;2023-05-14T11:02:22;2.00;;;1.60;;
57337;SDS011;43173;50.980;18.204;2023-05-14T11:05:00;3.40;;;1.80;;
57337;SDS011;43173;50.980;18.204;2023-05-14T11:21:23;3.00;;;2.60;;
57337;SDS011;43173;50.980;18.204;2023-05-14T11:23:49;3.70;;;2.40;;
57337;SDS011;43173;50.980;18.204;2023-05-14T11:26:15;3.00;;;2.00;;
57337;SDS011;43173;50.980;18.204;2023-05-14T11:28:41;2.50;;;2.10;;
57337;SDS011;43173;50.980;18.204;2023-05-14T11:31:07;2.60;;;2.00;;
57337;SDS011;43173;50.980;18.204;2023-05-14T11:33:32;7.90;;;5.60;;
57337;SDS011;43173;50.980;18.204;2023-05-14T11:35:58;4.70;;;3.10;;
57337;SDS011;43173;50.980;18.204;2023-05-14T11:38:23;3.10;;;2.00;;
57337;SDS011;43173;50.980;18.204;2023-05-14T11:43:22;3.10;;;2.20;;
57337;SDS011;43173;50.980;18.204;2023-05-14T11:45:53;2.60;;;1.90;;
57337;SDS011;43173;50.980;18.204;2023-05-14T11:48:20;3.40;;;2.20;;
57337;SDS011;43173;50.980;18.204;2023-05-14T11:50:46;2.30;;;2.10;;
57337;SDS011;43173;50.980;18.204;2023-05-14T11:53:16;3.90;;;2.10;;
57337;SDS011;43173;50.980;18.204;2023-05-14T11:55:59;5.90;;;2.10;;
57337;SDS011;43173;50.980;18.204;2023-05-14T11:58:24;2.80;;;2.30;;
57337;SDS011;43173;50.980;18.204;2023-05-14T12:00:53;2.40;;;2.20;;
57337;SDS011;43173;50.980;18.204;2023-05-14T12:03:19;2.40;;;2.20;;
57337;SDS011;43173;50.980;18.204;2023-05-14T12:08:24;3.00;;;2.30;;
57337;SDS011;43173;50.980;18.204;2023-05-14T12:10:54;3.50;;;2.80;;
57337;SDS011;43173;50.980;18.204;2023-05-14T12:13:20;4.70;;;2.40;;
57337;SDS011;43173;50.980;18.204;2023-05-14T12:15:48;2.80;;;2.30;;
57337;SDS011;43173;50.980;18.204;2023-05-14T12:18:18;2.40;;;2.10;;
57337;SDS011;43173;50.980;18.204;2023-05-14T12:20:47;4.20;;;2.70;;
57337;SDS011;43173;50.980;18.204;2023-05-14T12:23:13;3.30;;;2.50;;
57337;SDS011;43173;50.980;18.204;2023-05-14T12:25:45;4.60;;;2.80;;
57337;SDS011;43173;50.980;18.204;2023-05-14T12:28:15;3.60;;;2.80;;
57337;SDS011;43173;50.980;18.204;2023-05-14T12:30:41;5.70;;;2.90;;
57337;SDS011;43173;50.980;18.204;2023-05-14T12:33:06;3.60;;;2.80;;
57337;SDS011;43173;50.980;18.204;2023-05-14T12:35:32;4.20;;;2.60;;
57337;SDS011;43173;50.980;18.204;2023-05-14T12:37:58;3.50;;;2.70;;
57337;SDS011;43173;50.980;18.204;2023-05-14T12:40:24;4.00;;;2.80;;
57337;SDS011;43173;50.980;18.204;2023-05-14T12:42:49;4.90;;;3.10;;
57337;SDS011;43173;50.980;18.204;2023-05-14T12:45:15;3.70;;;2.70;;
57337;SDS011;43173;50.980;18.204;2023-05-14T12:47:40;4.60;;;2.80;;
57337;SDS011;43173;50.980;18.204;2023-05-14T12:50:06;4.10;;;2.70;;
57337;SDS011;43173;50.980;18.204;2023-05-14T12:52:32;3.50;;;2.90;;
57337;SDS011;43173;50.980;18.204;2023-05-14T12:54:58;2.70;;;2.50;;
57337;SDS011;43173;50.980;18.204;2023-05-14T12:57:23;3.70;;;2.40;;
57337;SDS011;43173;50.980;18.204;2023-05-14T12:59:49;3.30;;;2.60;;
57337;SDS011;43173;50.980;18.204;2023-05-14T13:02:15;3.50;;;2.70;;
57337;SDS011;43173;50.980;18.204;2023-05-14T13:04:41;4.00;;;2.70;;
57337;SDS011;43173;50.980;18.204;2023-05-14T13:07:07;4.30;;;2.70;;
57337;SDS011;43173;50.980;18.204;2023-05-14T13:09:33;2.70;;;2.50;;
57337;SDS011;43173;50.980;18.204;2023-05-14T13:11:58;3.80;;;2.50;;
57337;SDS011;43173;50.980;18.204;2023-05-14T13:14:24;2.90;;;2.60;;
57337;SDS011;43173;50.980;18.204;2023-05-14T13:16:50;4.10;;;2.90;;
57337;SDS011;43173;50.980;18.204;2023-05-14T13:19:15;3.10;;;2.70;;
57337;SDS011;43173;50.980;18.204;2023-05-14T13:21:41;4.00;;;2.70;;
57337;SDS011;43173;50.980;18.204;2023-05-14T13:24:07;3.20;;;2.70;;
57337;SDS011;43173;50.980;18.204;2023-05-14T13:26:34;3.40;;;2.70;;
57337;SDS011;43173;50.980;18.204;2023-05-14T13:29:01;3.80;;;2.70;;
57337;SDS011;43173;50.980;18.204;2023-05-14T13:31:27;4.10;;;2.80;;
57337;SDS011;43173;50.980;18.204;2023-05-14T13:33:52;3.10;;;2.80;;
57337;SDS011;43173;50.980;18.204;2023-05-14T13:36:18;5.80;;;2.60;;
57337;SDS011;43173;50.980;18.204;2023-05-14T13:38:44;3.40;;;2.80;;
57337;SDS011;43173;50.980;18.204;2023-05-14T13:41:10;3.80;;;2.80;;
57337;SDS011;43173;50.980;18.204;2023-05-14T13:43:36;4.00;;;2.60;;
57337;SDS011;43173;50.980;18.204;2023-05-14T13:46:02;5.70;;;2.90;;
57337;SDS011;43173;50.980;18.204;2023-05-14T13:48:29;4.30;;;2.70;;
57337;SDS011;43173;50.980;18.204;2023-05-14T13:50:58;4.20;;;3.40;;
57337;SDS011;43173;50.980;18.204;2023-05-14T13:53:24;4.40;;;2.90;;
57337;SDS011;43173;50.980;18.204;2023-05-14T13:55:50;4.10;;;2.50;;
57337;SDS011;43173;50.980;18.204;2023-05-14T13:58:21;3.30;;;2.60;;
57337;SDS011;43173;50.980;18.204;2023-05-14T14:00:48;3.00;;;2.60;;
57337;SDS011;43173;50.980;18.204;2023-05-14T14:03:14;3.00;;;2.60;;
57337;SDS011;43173;50.980;18.204;2023-05-14T14:05:40;6.30;;;2.90;;
57337;SDS011;43173;50.980;18.204;2023-05-14T14:08:05;4.30;;;3.10;;
57337;SDS011;43173;50.980;18.204;2023-05-14T14:10:31;5.40;;;2.80;;
57337;SDS011;43173;50.980;18.204;2023-05-14T14:12:57;3.70;;;3.00;;
57337;SDS011;43173;50.980;18.204;2023-05-14T14:15:22;4.50;;;2.70;;
57337;SDS011;43173;50.980;18.204;2023-05-14T14:17:48;3.30;;;2.90;;
57337;SDS011;43173;50.980;18.204;2023-05-14T14:20:13;5.60;;;3.00;;
57337;SDS011;43173;50.980;18.204;2023-05-14T14:22:39;3.60;;;2.80;;
57337;SDS011;43173;50.980;18.204;2023-05-14T14:25:06;2.80;;;2.60;;
57337;SDS011;43173;50.980;18.204;2023-05-14T14:27:33;4.70;;;2.70;;
57337;SDS011;43173;50.980;18.204;2023-05-14T14:30:04;4.40;;;3.10;;
57337;SDS011;43173;50.980;18.204;2023-05-14T14:32:31;6.10;;;3.00;;
57337;SDS011;43173;50.980;18.204;2023-05-14T14:34:57;4.20;;;3.00;;
57337;SDS011;43173;50.980;18.204;2023-05-14T14:37:23;3.60;;;2.70;;
57337;SDS011;43173;50.980;18.204;2023-05-14T14:39:48;4.00;;;2.50;;
57337;SDS011;43173;50.980;18.204;2023-05-14T14:42:14;4.40;;;2.50;;
57337;SDS011;43173;50.980;18.204;2023-05-14T14:44:39;2.70;;;2.40;;
57337;SDS011;43173;50.980;18.204;2023-05-14T14:47:05;5.10;;;2.50;;
57337;SDS011;43173;50.980;18.204;2023-05-14T14:49:31;3.30;;;2.40;;
57337;SDS011;43173;50.980;18.204;2023-05-14T14:51:57;3.20;;;2.50;;
57337;SDS011;43173;50.980;18.204;2023-05-14T14:54:22;2.90;;;2.60;;